sensor_id;sensor_type;location;lat;lon;timestamp;temperature;humidity
12957;DHT22;6543;48.836;10.092;2023-12-20T00:00:50;6.10;99.90
12957;DHT22;6543;48.836;10.092;2023-12-20T00:03:16;6.10;99.90
12957;DHT22;6543;48.836;10.092;2023-12-20T00:05:43;6.10;99.90
12957;DHT22;6543;48.836;10.092;2023-12-20T00:08:10;6.10;99.90
12957;DHT22;6543;48.836;10.092;2023-12-20T00:10:37;6.90;99.90
12957;DHT22;6543;48.836;10.092;2023-12-20T00:13:05;6.10;99.90
12957;DHT22;6543;48.836;10.092;2023-12-20T00:15:33;6.00;99.90
12957;DHT22;6543;48.836;10.092;2023-12-20T00:18:00;6.00;99.90
12957;DHT22;6543;48.836;10.092;2023-12-20T00:20:28;6.00;99.90
12957;DHT22;6543;48.836;10.092;2023-12-20T00:22:56;6.10;99.90
12957;DHT22;6543;48.836;10.092;2023-12-20T00:25:24;6.10;99.90
12957;DHT22;6543;48.836;10.092;2023-12-20T00:27:50;6.10;99.90
12957;DHT22;6543;48.836;10.092;2023-12-20T00:30:19;6.40;99.90
12957;DHT22;6543;48.836;10.092;2023-12-20T00:32:46;6.10;99.90
12957;DHT22;6543;48.836;10.092;2023-12-20T00:35:13;6.10;99.90
12957;DHT22;6543;48.836;10.092;2023-12-20T00:37:39;6.20;99.90
12957;DHT22;6543;48.836;10.092;2023-12-20T00:40:07;6.20;99.90
12957;DHT22;6543;48.836;10.092;2023-12-20T00:42:34;6.20;99.90
12957;DHT22;6543;48.836;10.092;2023-12-20T00:45:01;6.20;99.90
12957;DHT22;6543;48.836;10.092;2023-12-20T00:47:31;6.20;99.90
12957;DHT22;6543;48.836;10.092;2023-12-20T00:49:58;6.10;99.90
12957;DHT22;6543;48.836;10.092;2023-12-20T00:52:25;7.50;99.90
12957;DHT22;6543;48.836;10.092;2023-12-20T00:54:51;5.40;99.90
12957;DHT22;6543;48.836;10.092;2023-12-20T00:57:18;6.30;99.90
12957;DHT22;6543;48.836;10.092;2023-12-20T00:59:45;6.30;99.90
12957;DHT22;6543;48.836;10.092;2023-12-20T01:02:12;6.90;99.90
12957;DHT22;6543;48.836;10.092;2023-12-20T01:04:40;6.30;99.90
12957;DHT22;6543;48.836;10.092;2023-12-20T01:07:07;6.30;99.90
12957;DHT22;6543;48.836;10.092;2023-12-20T01:09:34;6.20;99.90
12957;DHT22;6543;48.836;10.092;2023-12-20T01:12:01;6.20;99.90
12957;DHT22;6543;48.836;10.092;2023-12-20T01:14:27;6.20;99.90
12957;DHT22;6543;48.836;10.092;2023-12-20T01:16:54;6.40;99.90
12957;DHT22;6543;48.836;10.092;2023-12-20T01:19:21;6.10;99.90
12957;DHT22;6543;48.836;10.092;2023-12-20T01:21:50;5.90;99.90
12957;DHT22;6543;48.836;10.092;2023-12-20T01:24:17;5.80;99.90
12957;DHT22;6543;48.836;10.092;2023-12-20T01:26:44;5.80;99.90
12957;DHT22;6543;48.836;10.092;2023-12-20T01:29:11;5.80;99.90
12957;DHT22;6543;48.836;10.092;2023-12-20T01:31:38;5.70;99.90
12957;DHT22;6543;48.836;10.092;2023-12-20T01:34:06;5.70;99.90
12957;DHT22;6543;48.836;10.092;2023-12-20T01:36:32;5.60;99.90
12957;DHT22;6543;48.836;10.092;2023-12-20T01:39:00;5.60;99.90
12957;DHT22;6543;48.836;10.092;2023-12-20T01:41:27;5.60;99.90
12957;DHT22;6543;48.836;10.092;2023-12-20T01:43:54;5.50;99.90
12957;DHT22;6543;48.836;10.092;2023-12-20T01:46:21;5.50;99.90
12957;DHT22;6543;48.836;10.092;2023-12-20T01:48:51;5.90;99.90
12957;DHT22;6543;48.836;10.092;2023-12-20T01:51:18;5.50;99.90
12957;DHT22;6543;48.836;10.092;2023-12-20T01:53:46;5.40;99.90
12957;DHT22;6543;48.836;10.092;2023-12-20T01:56:15;5.40;99.90
12957;DHT22;6543;48.836;10.092;2023-12-20T01:58:44;5.40;99.90
12957;DHT22;6543;48.836;10.092;2023-12-20T02:01:11;5.30;99.90
12957;DHT22;6543;48.836;10.092;2023-12-20T02:03:39;5.80;99.90
12957;DHT22;6543;48.836;10.092;2023-12-20T02:06:06;5.30;99.90
12957;DHT22;6543;48.836;10.092;2023-12-20T02:08:34;5.30;99.90
12957;DHT22;6543;48.836;10.092;2023-12-20T02:11:01;7.50;99.90
12957;DHT22;6543;48.836;10.092;2023-12-20T02:13:30;5.30;99.90
12957;DHT22;6543;48.836;10.092;2023-12-20T02:15:57;5.30;99.90
12957;DHT22;6543;48.836;10.092;2023-12-20T02:18:24;5.30;99.90
12957;DHT22;6543;48.836;10.092;2023-12-20T02:20:51;5.30;99.90
12957;DHT22;6543;48.836;10.092;2023-12-20T02:23:19;5.30;99.90
12957;DHT22;6543;48.836;10.092;2023-12-20T02:25:46;5.30;99.90
12957;DHT22;6543;48.836;10.092;2023-12-20T02:28:13;5.30;99.90
12957;DHT22;6543;48.836;10.092;2023-12-20T02:30:40;5.30;99.90
12957;DHT22;6543;48.836;10.092;2023-12-20T02:33:08;5.20;99.90
12957;DHT22;6543;48.836;10.092;2023-12-20T02:35:37;5.30;99.90
12957;DHT22;6543;48.836;10.092;2023-12-20T02:38:04;5.30;99.90
12957;DHT22;6543;48.836;10.092;2023-12-20T02:40:32;5.30;99.90
12957;DHT22;6543;48.836;10.092;2023-12-20T02:42:59;5.30;99.90
12957;DHT22;6543;48.836;10.092;2023-12-20T02:45:26;5.30;99.90
12957;DHT22;6543;48.836;10.092;2023-12-20T02:47:53;5.30;99.90
12957;DHT22;6543;48.836;10.092;2023-12-20T02:50:20;5.20;99.90
12957;DHT22;6543;48.836;10.092;2023-12-20T02:52:46;5.30;99.90
12957;DHT22;6543;48.836;10.092;2023-12-20T02:55:13;5.30;99.90
12957;DHT22;6543;48.836;10.092;2023-12-20T02:57:41;5.30;99.90
12957;DHT22;6543;48.836;10.092;2023-12-20T03:00:09;5.70;99.90
12957;DHT22;6543;48.836;10.092;2023-12-20T03:02:36;5.30;99.90
12957;DHT22;6543;48.836;10.092;2023-12-20T03:05:03;5.50;99.90
12957;DHT22;6543;48.836;10.092;2023-12-20T03:07:30;5.30;99.90
12957;DHT22;6543;48.836;10.092;2023-12-20T03:09:57;5.30;99.90
12957;DHT22;6543;48.836;10.092;2023-12-20T03:12:23;5.30;99.90
12957;DHT22;6543;48.836;10.092;2023-12-20T03:14:51;5.30;99.90
12957;DHT22;6543;48.836;10.092;2023-12-20T03:17:18;5.30;99.90
12957;DHT22;6543;48.836;10.092;2023-12-20T03:19:46;5.30;99.90
12957;DHT22;6543;48.836;10.092;2023-12-20T03:22:12;5.30;99.90
12957;DHT22;6543;48.836;10.092;2023-12-20T03:24:39;5.30;99.90
12957;DHT22;6543;48.836;10.092;2023-12-20T03:27:06;5.30;99.90
12957;DHT22;6543;48.836;10.092;2023-12-20T03:29:33;5.30;99.90
12957;DHT22;6543;48.836;10.092;2023-12-20T03:32:01;5.30;99.90
12957;DHT22;6543;48.836;10.092;2023-12-20T03:34:28;5.30;99.90
12957;DHT22;6543;48.836;10.092;2023-12-20T03:36:55;5.30;99.90
12957;DHT22;6543;48.836;10.092;2023-12-20T03:39:22;5.30;99.90
12957;DHT22;6543;48.836;10.092;2023-12-20T03:41:49;5.30;99.90
12957;DHT22;6543;48.836;10.092;2023-12-20T03:44:15;5.30;99.90
12957;DHT22;6543;48.836;10.092;2023-12-20T03:46:42;5.30;99.90
12957;DHT22;6543;48.836;10.092;2023-12-20T03:49:12;5.30;99.90
12957;DHT22;6543;48.836;10.092;2023-12-20T03:51:39;5.30;99.90
12957;DHT22;6543;48.836;10.092;2023-12-20T03:54:07;5.30;99.90
12957;DHT22;6543;48.836;10.092;2023-12-20T03:56:34;5.20;99.90
12957;DHT22;6543;48.836;10.092;2023-12-20T03:59:00;5.30;99.90
12957;DHT22;6543;48.836;10.092;2023-12-20T04:01:27;5.20;99.90
12957;DHT22;6543;48.836;10.092;2023-12-20T04:03:54;5.20;99.90
12957;DHT22;6543;48.836;10.092;2023-12-20T04:06:22;5.20;99.90
12957;DHT22;6543;48.836;10.092;2023-12-20T04:08:49;5.20;99.90
12957;DHT22;6543;48.836;10.092;2023-12-20T04:11:15;5.20;99.90
12957;DHT22;6543;48.836;10.092;2023-12-20T04:13:42;5.10;99.90
12957;DHT22;6543;48.836;10.092;2023-12-20T04:16:09;5.10;99.90
12957;DHT22;6543;48.836;10.092;2023-12-20T04:18:36;5.10;99.90
12957;DHT22;6543;48.836;10.092;2023-12-20T04:21:03;5.10;99.90
12957;DHT22;6543;48.836;10.092;2023-12-20T04:23:31;5.10;99.90
12957;DHT22;6543;48.836;10.092;2023-12-20T04:25:58;5.00;99.90
12957;DHT22;6543;48.836;10.092;2023-12-20T04:28:25;5.00;99.90
12957;DHT22;6543;48.836;10.092;2023-12-20T04:30:51;5.00;99.90
12957;DHT22;6543;48.836;10.092;2023-12-20T04:33:18;4.90;99.90
12957;DHT22;6543;48.836;10.092;2023-12-20T04:35:45;4.90;99.90
12957;DHT22;6543;48.836;10.092;2023-12-20T04:38:12;4.90;99.90
12957;DHT22;6543;48.836;10.092;2023-12-20T04:40:40;5.70;99.90
12957;DHT22;6543;48.836;10.092;2023-12-20T04:43:07;4.80;99.90
12957;DHT22;6543;48.836;10.092;2023-12-20T04:45:34;4.80;99.90
12957;DHT22;6543;48.836;10.092;2023-12-20T04:48:02;4.80;99.90
12957;DHT22;6543;48.836;10.092;2023-12-20T04:50:29;4.80;99.90
12957;DHT22;6543;48.836;10.092;2023-12-20T04:52:56;4.80;99.90
12957;DHT22;6543;48.836;10.092;2023-12-20T04:55:23;4.70;99.90
12957;DHT22;6543;48.836;10.092;2023-12-20T04:57:51;4.60;99.90
12957;DHT22;6543;48.836;10.092;2023-12-20T05:00:18;4.80;99.90
12957;DHT22;6543;48.836;10.092;2023-12-20T05:02:45;6.00;99.90
12957;DHT22;6543;48.836;10.092;2023-12-20T05:05:11;4.80;99.90
12957;DHT22;6543;48.836;10.092;2023-12-20T05:07:40;4.80;99.90
12957;DHT22;6543;48.836;10.092;2023-12-20T05:10:08;4.70;99.90
12957;DHT22;6543;48.836;10.092;2023-12-20T05:12:34;4.70;99.90
12957;DHT22;6543;48.836;10.092;2023-12-20T05:15:04;4.70;99.90
12957;DHT22;6543;48.836;10.092;2023-12-20T05:17:31;4.70;99.90
12957;DHT22;6543;48.836;10.092;2023-12-20T05:19:58;4.70;99.90
12957;DHT22;6543;48.836;10.092;2023-12-20T05:22:24;4.70;99.90
12957;DHT22;6543;48.836;10.092;2023-12-20T05:24:53;4.70;99.90
12957;DHT22;6543;48.836;10.092;2023-12-20T05:27:19;4.70;99.90
12957;DHT22;6543;48.836;10.092;2023-12-20T05:29:46;4.70;99.90
12957;DHT22;6543;48.836;10.092;2023-12-20T05:32:14;4.70;99.90
12957;DHT22;6543;48.836;10.092;2023-12-20T05:34:41;4.70;99.90
12957;DHT22;6543;48.836;10.092;2023-12-20T05:37:08;4.70;99.90
12957;DHT22;6543;48.836;10.092;2023-12-20T05:39:34;4.70;99.90
12957;DHT22;6543;48.836;10.092;2023-12-20T05:42:01;5.00;99.90
12957;DHT22;6543;48.836;10.092;2023-12-20T05:44:28;5.30;99.90
12957;DHT22;6543;48.836;10.092;2023-12-20T05:46:55;4.60;99.90
12957;DHT22;6543;48.836;10.092;2023-12-20T05:49:23;4.70;99.90
12957;DHT22;6543;48.836;10.092;2023-12-20T05:51:49;4.70;99.90
12957;DHT22;6543;48.836;10.092;2023-12-20T05:54:16;4.70;99.90
12957;DHT22;6543;48.836;10.092;2023-12-20T05:56:43;4.70;99.90
12957;DHT22;6543;48.836;10.092;2023-12-20T05:59:10;4.70;99.90
12957;DHT22;6543;48.836;10.092;2023-12-20T06:01:36;4.70;99.90
12957;DHT22;6543;48.836;10.092;2023-12-20T06:04:03;4.70;99.90
12957;DHT22;6543;48.836;10.092;2023-12-20T06:06:31;4.70;99.90
12957;DHT22;6543;48.836;10.092;2023-12-20T06:08:58;4.70;99.90
12957;DHT22;6543;48.836;10.092;2023-12-20T06:11:25;4.70;99.90
12957;DHT22;6543;48.836;10.092;2023-12-20T06:13:51;4.70;99.90
12957;DHT22;6543;48.836;10.092;2023-12-20T06:16:19;4.80;99.90
12957;DHT22;6543;48.836;10.092;2023-12-20T06:18:45;4.70;99.90
12957;DHT22;6543;48.836;10.092;2023-12-20T06:21:12;4.80;99.90
12957;DHT22;6543;48.836;10.092;2023-12-20T06:23:41;4.80;99.90
12957;DHT22;6543;48.836;10.092;2023-12-20T06:26:08;4.80;99.90
12957;DHT22;6543;48.836;10.092;2023-12-20T06:28:34;4.80;99.90
12957;DHT22;6543;48.836;10.092;2023-12-20T06:31:01;4.80;99.90
12957;DHT22;6543;48.836;10.092;2023-12-20T06:33:28;4.80;99.90
12957;DHT22;6543;48.836;10.092;2023-12-20T06:35:56;4.90;99.90
12957;DHT22;6543;48.836;10.092;2023-12-20T06:38:23;4.80;99.90
12957;DHT22;6543;48.836;10.092;2023-12-20T06:40:51;4.80;99.90
12957;DHT22;6543;48.836;10.092;2023-12-20T06:43:18;4.80;99.90
12957;DHT22;6543;48.836;10.092;2023-12-20T06:45:44;5.40;99.90
12957;DHT22;6543;48.836;10.092;2023-12-20T06:48:11;4.80;99.90
12957;DHT22;6543;48.836;10.092;2023-12-20T06:50:39;4.80;99.90
12957;DHT22;6543;48.836;10.092;2023-12-20T06:53:05;4.90;99.90
12957;DHT22;6543;48.836;10.092;2023-12-20T06:55:32;5.00;99.90
12957;DHT22;6543;48.836;10.092;2023-12-20T06:58:01;4.90;99.90
12957;DHT22;6543;48.836;10.092;2023-12-20T07:00:27;4.90;99.90
12957;DHT22;6543;48.836;10.092;2023-12-20T07:02:54;4.90;99.90
12957;DHT22;6543;48.836;10.092;2023-12-20T07:05:21;4.90;99.90
12957;DHT22;6543;48.836;10.092;2023-12-20T07:07:48;4.90;99.90
12957;DHT22;6543;48.836;10.092;2023-12-20T07:10:15;5.30;99.90
12957;DHT22;6543;48.836;10.092;2023-12-20T07:12:42;5.00;99.90
12957;DHT22;6543;48.836;10.092;2023-12-20T07:15:11;5.00;99.90
12957;DHT22;6543;48.836;10.092;2023-12-20T07:17:38;5.00;99.90
12957;DHT22;6543;48.836;10.092;2023-12-20T07:20:06;5.00;99.90
12957;DHT22;6543;48.836;10.092;2023-12-20T07:22:35;5.00;99.90
12957;DHT22;6543;48.836;10.092;2023-12-20T07:25:02;5.00;99.90
12957;DHT22;6543;48.836;10.092;2023-12-20T07:27:29;5.00;99.90
12957;DHT22;6543;48.836;10.092;2023-12-20T07:29:55;5.00;99.90
12957;DHT22;6543;48.836;10.092;2023-12-20T07:32:24;5.00;99.90
12957;DHT22;6543;48.836;10.092;2023-12-20T07:34:50;5.00;99.90
12957;DHT22;6543;48.836;10.092;2023-12-20T07:37:17;5.10;99.90
12957;DHT22;6543;48.836;10.092;2023-12-20T07:39:44;5.00;99.90
12957;DHT22;6543;48.836;10.092;2023-12-20T07:42:11;6.50;99.90
12957;DHT22;6543;48.836;10.092;2023-12-20T07:44:37;5.00;99.90
12957;DHT22;6543;48.836;10.092;2023-12-20T07:47:04;5.00;99.90
12957;DHT22;6543;48.836;10.092;2023-12-20T07:49:32;5.10;99.90
12957;DHT22;6543;48.836;10.092;2023-12-20T07:51:59;5.10;99.90
12957;DHT22;6543;48.836;10.092;2023-12-20T07:54:25;5.20;99.90
12957;DHT22;6543;48.836;10.092;2023-12-20T07:56:52;5.10;99.90
12957;DHT22;6543;48.836;10.092;2023-12-20T07:59:19;5.10;99.90
12957;DHT22;6543;48.836;10.092;2023-12-20T08:01:46;5.10;99.90
12957;DHT22;6543;48.836;10.092;2023-12-20T08:04:12;5.20;99.90
12957;DHT22;6543;48.836;10.092;2023-12-20T08:06:41;5.20;99.90
12957;DHT22;6543;48.836;10.092;2023-12-20T08:09:07;5.20;99.90
12957;DHT22;6543;48.836;10.092;2023-12-20T08:11:34;5.20;99.90
12957;DHT22;6543;48.836;10.092;2023-12-20T08:14:01;6.00;99.90
12957;DHT22;6543;48.836;10.092;2023-12-20T08:16:28;5.30;99.90
12957;DHT22;6543;48.836;10.092;2023-12-20T08:18:54;5.20;99.90
12957;DHT22;6543;48.836;10.092;2023-12-20T08:21:21;5.30;99.90
12957;DHT22;6543;48.836;10.092;2023-12-20T08:23:50;5.30;99.90
12957;DHT22;6543;48.836;10.092;2023-12-20T08:26:19;5.10;99.90
12957;DHT22;6543;48.836;10.092;2023-12-20T08:28:47;5.30;99.90
12957;DHT22;6543;48.836;10.092;2023-12-20T08:31:14;5.30;99.90
12957;DHT22;6543;48.836;10.092;2023-12-20T08:33:42;5.30;99.90
12957;DHT22;6543;48.836;10.092;2023-12-20T08:36:09;5.40;99.90
12957;DHT22;6543;48.836;10.092;2023-12-20T08:38:36;5.40;99.90
12957;DHT22;6543;48.836;10.092;2023-12-20T08:41:05;5.20;99.90
12957;DHT22;6543;48.836;10.092;2023-12-20T08:43:32;5.40;99.90
12957;DHT22;6543;48.836;10.092;2023-12-20T08:45:58;5.40;99.90
12957;DHT22;6543;48.836;10.092;2023-12-20T08:48:24;5.40;99.90
12957;DHT22;6543;48.836;10.092;2023-12-20T08:50:51;5.40;99.90
12957;DHT22;6543;48.836;10.092;2023-12-20T08:53:18;5.30;99.90
12957;DHT22;6543;48.836;10.092;2023-12-20T08:55:45;5.30;99.90
12957;DHT22;6543;48.836;10.092;2023-12-20T08:58:13;5.30;99.90
12957;DHT22;6543;48.836;10.092;2023-12-20T09:00:40;5.30;99.90
12957;DHT22;6543;48.836;10.092;2023-12-20T09:03:07;5.30;99.90
12957;DHT22;6543;48.836;10.092;2023-12-20T09:05:33;5.30;99.90
12957;DHT22;6543;48.836;10.092;2023-12-20T09:08:00;5.30;99.90
12957;DHT22;6543;48.836;10.092;2023-12-20T09:10:27;5.30;99.90
12957;DHT22;6543;48.836;10.092;2023-12-20T09:12:54;5.30;99.90
12957;DHT22;6543;48.836;10.092;2023-12-20T09:15:24;5.30;99.90
12957;DHT22;6543;48.836;10.092;2023-12-20T09:17:51;5.30;99.90
12957;DHT22;6543;48.836;10.092;2023-12-20T09:20:18;5.30;99.90
12957;DHT22;6543;48.836;10.092;2023-12-20T09:22:45;5.20;99.90
12957;DHT22;6543;48.836;10.092;2023-12-20T09:25:12;5.30;99.90
12957;DHT22;6543;48.836;10.092;2023-12-20T09:27:40;5.30;99.90
12957;DHT22;6543;48.836;10.092;2023-12-20T09:30:07;5.30;99.90
12957;DHT22;6543;48.836;10.092;2023-12-20T09:32:35;5.30;99.90
12957;DHT22;6543;48.836;10.092;2023-12-20T09:35:02;5.30;99.90
12957;DHT22;6543;48.836;10.092;2023-12-20T09:37:30;5.40;99.90
12957;DHT22;6543;48.836;10.092;2023-12-20T09:39:57;5.40;99.90
12957;DHT22;6543;48.836;10.092;2023-12-20T09:42:28;5.40;99.90
12957;DHT22;6543;48.836;10.092;2023-12-20T09:44:58;5.20;99.90
12957;DHT22;6543;48.836;10.092;2023-12-20T09:47:28;5.10;99.90
12957;DHT22;6543;48.836;10.092;2023-12-20T09:49:57;5.20;99.90
12957;DHT22;6543;48.836;10.092;2023-12-20T09:52:24;5.10;99.90
12957;DHT22;6543;48.836;10.092;2023-12-20T09:54:52;5.20;99.90
12957;DHT22;6543;48.836;10.092;2023-12-20T09:57:20;5.20;99.90
12957;DHT22;6543;48.836;10.092;2023-12-20T09:59:47;5.20;99.90
12957;DHT22;6543;48.836;10.092;2023-12-20T10:02:14;5.20;99.90
12957;DHT22;6543;48.836;10.092;2023-12-20T10:04:46;5.20;99.90
12957;DHT22;6543;48.836;10.092;2023-12-20T10:07:14;5.30;99.90
12957;DHT22;6543;48.836;10.092;2023-12-20T10:09:42;5.40;99.90
12957;DHT22;6543;48.836;10.092;2023-12-20T10:12:09;5.10;99.90
12957;DHT22;6543;48.836;10.092;2023-12-20T10:14:37;5.00;99.90
12957;DHT22;6543;48.836;10.092;2023-12-20T10:17:05;4.90;99.90
12957;DHT22;6543;48.836;10.092;2023-12-20T10:19:32;4.90;99.90
12957;DHT22;6543;48.836;10.092;2023-12-20T10:21:59;4.90;99.90
12957;DHT22;6543;48.836;10.092;2023-12-20T10:24:29;5.10;99.90
12957;DHT22;6543;48.836;10.092;2023-12-20T10:27:03;5.10;99.90
12957;DHT22;6543;48.836;10.092;2023-12-20T10:29:41;5.10;99.90
12957;DHT22;6543;48.836;10.092;2023-12-20T10:32:22;5.20;99.90
12957;DHT22;6543;48.836;10.092;2023-12-20T10:34:50;5.30;99.90
12957;DHT22;6543;48.836;10.092;2023-12-20T10:37:17;5.30;99.90
12957;DHT22;6543;48.836;10.092;2023-12-20T10:39:49;5.30;99.90
12957;DHT22;6543;48.836;10.092;2023-12-20T10:42:17;5.90;99.90
12957;DHT22;6543;48.836;10.092;2023-12-20T10:44:44;5.30;99.90
12957;DHT22;6543;48.836;10.092;2023-12-20T10:47:13;5.30;99.90
12957;DHT22;6543;48.836;10.092;2023-12-20T10:49:40;5.30;99.90
12957;DHT22;6543;48.836;10.092;2023-12-20T10:52:09;5.30;99.90
12957;DHT22;6543;48.836;10.092;2023-12-20T10:54:38;5.40;99.90
12957;DHT22;6543;48.836;10.092;2023-12-20T10:57:06;5.70;99.90
12957;DHT22;6543;48.836;10.092;2023-12-20T10:59:36;5.50;99.90
12957;DHT22;6543;48.836;10.092;2023-12-20T11:02:04;5.60;99.90
12957;DHT22;6543;48.836;10.092;2023-12-20T11:04:36;5.50;99.90
12957;DHT22;6543;48.836;10.092;2023-12-20T11:07:13;5.60;99.90
12957;DHT22;6543;48.836;10.092;2023-12-20T11:09:45;5.70;99.90
12957;DHT22;6543;48.836;10.092;2023-12-20T11:12:22;5.70;99.90
12957;DHT22;6543;48.836;10.092;2023-12-20T11:14:53;5.60;99.90
12957;DHT22;6543;48.836;10.092;2023-12-20T11:17:22;5.70;99.90
12957;DHT22;6543;48.836;10.092;2023-12-20T11:20:07;5.60;99.90
12957;DHT22;6543;48.836;10.092;2023-12-20T11:22:36;5.70;99.90
12957;DHT22;6543;48.836;10.092;2023-12-20T11:25:04;6.10;99.90
12957;DHT22;6543;48.836;10.092;2023-12-20T11:27:33;5.70;99.90
12957;DHT22;6543;48.836;10.092;2023-12-20T11:30:03;5.70;99.90
12957;DHT22;6543;48.836;10.092;2023-12-20T11:32:34;5.80;99.90
12957;DHT22;6543;48.836;10.092;2023-12-20T11:35:17;5.80;99.90
12957;DHT22;6543;48.836;10.092;2023-12-20T11:37:45;5.70;99.90
12957;DHT22;6543;48.836;10.092;2023-12-20T11:40:15;5.80;99.90
12957;DHT22;6543;48.836;10.092;2023-12-20T11:42:44;5.60;99.90
12957;DHT22;6543;48.836;10.092;2023-12-20T11:45:13;5.70;99.90
12957;DHT22;6543;48.836;10.092;2023-12-20T11:47:42;5.70;99.90
12957;DHT22;6543;48.836;10.092;2023-12-20T11:50:09;5.60;99.90
12957;DHT22;6543;48.836;10.092;2023-12-20T11:52:36;6.60;99.90
12957;DHT22;6543;48.836;10.092;2023-12-20T11:55:03;5.60;99.90
12957;DHT22;6543;48.836;10.092;2023-12-20T11:57:30;5.60;99.90
12957;DHT22;6543;48.836;10.092;2023-12-20T11:59:59;5.70;99.90
12957;DHT22;6543;48.836;10.092;2023-12-20T12:02:25;6.30;99.90
12957;DHT22;6543;48.836;10.092;2023-12-20T12:04:52;5.70;99.90
12957;DHT22;6543;48.836;10.092;2023-12-20T12:07:19;5.90;99.90
12957;DHT22;6543;48.836;10.092;2023-12-20T12:09:47;5.90;99.90
12957;DHT22;6543;48.836;10.092;2023-12-20T12:12:14;5.70;99.90
12957;DHT22;6543;48.836;10.092;2023-12-20T12:14:41;5.70;99.90
12957;DHT22;6543;48.836;10.092;2023-12-20T12:17:12;6.00;99.90
12957;DHT22;6543;48.836;10.092;2023-12-20T12:19:39;5.60;99.90
12957;DHT22;6543;48.836;10.092;2023-12-20T12:22:07;5.80;99.90
12957;DHT22;6543;48.836;10.092;2023-12-20T12:24:36;5.60;99.90
12957;DHT22;6543;48.836;10.092;2023-12-20T12:27:05;6.60;99.90
12957;DHT22;6543;48.836;10.092;2023-12-20T12:29:32;5.50;99.90
12957;DHT22;6543;48.836;10.092;2023-12-20T12:31:59;5.50;99.90
12957;DHT22;6543;48.836;10.092;2023-12-20T12:34:28;5.40;99.90
12957;DHT22;6543;48.836;10.092;2023-12-20T12:36:55;5.40;99.90
12957;DHT22;6543;48.836;10.092;2023-12-20T12:39:23;5.40;99.90
12957;DHT22;6543;48.836;10.092;2023-12-20T12:41:51;5.40;99.90
12957;DHT22;6543;48.836;10.092;2023-12-20T12:44:18;5.30;99.90
12957;DHT22;6543;48.836;10.092;2023-12-20T12:46:46;5.90;99.90
12957;DHT22;6543;48.836;10.092;2023-12-20T12:49:15;5.60;99.90
12957;DHT22;6543;48.836;10.092;2023-12-20T12:51:43;5.30;99.90
12957;DHT22;6543;48.836;10.092;2023-12-20T12:54:10;5.20;99.90
12957;DHT22;6543;48.836;10.092;2023-12-20T12:56:39;5.20;99.90
12957;DHT22;6543;48.836;10.092;2023-12-20T12:59:06;5.10;99.90
12957;DHT22;6543;48.836;10.092;2023-12-20T13:01:32;5.10;99.90
12957;DHT22;6543;48.836;10.092;2023-12-20T13:03:59;5.10;99.90
12957;DHT22;6543;48.836;10.092;2023-12-20T13:06:28;5.10;99.90
12957;DHT22;6543;48.836;10.092;2023-12-20T13:08:56;5.10;99.90
12957;DHT22;6543;48.836;10.092;2023-12-20T13:11:23;5.20;99.90
12957;DHT22;6543;48.836;10.092;2023-12-20T13:13:50;5.10;99.90
12957;DHT22;6543;48.836;10.092;2023-12-20T13:16:17;5.50;99.90
12957;DHT22;6543;48.836;10.092;2023-12-20T13:18:44;6.00;99.90
12957;DHT22;6543;48.836;10.092;2023-12-20T13:21:11;5.10;99.90
12957;DHT22;6543;48.836;10.092;2023-12-20T13:23:37;5.50;99.90
12957;DHT22;6543;48.836;10.092;2023-12-20T13:26:06;5.10;99.90
12957;DHT22;6543;48.836;10.092;2023-12-20T13:28:33;5.20;99.90
12957;DHT22;6543;48.836;10.092;2023-12-20T13:31:00;5.30;99.90
12957;DHT22;6543;48.836;10.092;2023-12-20T13:33:27;5.20;99.90
12957;DHT22;6543;48.836;10.092;2023-12-20T13:35:54;5.30;99.90
12957;DHT22;6543;48.836;10.092;2023-12-20T13:38:21;5.30;99.90
12957;DHT22;6543;48.836;10.092;2023-12-20T13:40:48;4.50;99.90
12957;DHT22;6543;48.836;10.092;2023-12-20T13:43:16;5.30;99.90
12957;DHT22;6543;48.836;10.092;2023-12-20T13:45:46;5.40;99.90
12957;DHT22;6543;48.836;10.092;2023-12-20T13:48:13;5.30;99.90
12957;DHT22;6543;48.836;10.092;2023-12-20T13:50:40;5.30;99.90
12957;DHT22;6543;48.836;10.092;2023-12-20T13:53:06;5.30;99.90
12957;DHT22;6543;48.836;10.092;2023-12-20T13:55:33;5.30;99.90
12957;DHT22;6543;48.836;10.092;2023-12-20T13:58:00;5.20;99.90
12957;DHT22;6543;48.836;10.092;2023-12-20T14:00:28;5.30;99.90
12957;DHT22;6543;48.836;10.092;2023-12-20T14:02:55;5.30;99.90
12957;DHT22;6543;48.836;10.092;2023-12-20T14:05:22;5.20;99.90
12957;DHT22;6543;48.836;10.092;2023-12-20T14:07:49;5.10;99.90
12957;DHT22;6543;48.836;10.092;2023-12-20T14:10:16;5.10;99.90
12957;DHT22;6543;48.836;10.092;2023-12-20T14:12:43;5.10;99.90
12957;DHT22;6543;48.836;10.092;2023-12-20T14:15:10;5.40;99.90
12957;DHT22;6543;48.836;10.092;2023-12-20T14:17:40;5.20;99.90
12957;DHT22;6543;48.836;10.092;2023-12-20T14:20:08;5.10;99.90
12957;DHT22;6543;48.836;10.092;2023-12-20T14:22:37;5.10;99.90
12957;DHT22;6543;48.836;10.092;2023-12-20T14:25:10;5.10;99.90
12957;DHT22;6543;48.836;10.092;2023-12-20T14:27:37;5.10;99.90
12957;DHT22;6543;48.836;10.092;2023-12-20T14:30:05;5.00;99.90
12957;DHT22;6543;48.836;10.092;2023-12-20T14:32:34;4.90;99.90
12957;DHT22;6543;48.836;10.092;2023-12-20T14:35:05;4.90;99.90
12957;DHT22;6543;48.836;10.092;2023-12-20T14:37:33;4.90;99.90
12957;DHT22;6543;48.836;10.092;2023-12-20T14:40:00;5.00;99.90
12957;DHT22;6543;48.836;10.092;2023-12-20T14:42:27;4.90;99.90
12957;DHT22;6543;48.836;10.092;2023-12-20T14:44:54;4.80;99.90
12957;DHT22;6543;48.836;10.092;2023-12-20T14:47:22;5.00;99.90
12957;DHT22;6543;48.836;10.092;2023-12-20T14:49:48;4.80;99.90
12957;DHT22;6543;48.836;10.092;2023-12-20T14:52:17;4.90;99.90
12957;DHT22;6543;48.836;10.092;2023-12-20T14:54:44;4.80;99.90
12957;DHT22;6543;48.836;10.092;2023-12-20T14:57:11;4.80;99.90
12957;DHT22;6543;48.836;10.092;2023-12-20T14:59:38;6.70;99.90
12957;DHT22;6543;48.836;10.092;2023-12-20T15:02:04;4.80;99.90
12957;DHT22;6543;48.836;10.092;2023-12-20T15:04:31;4.90;99.90
12957;DHT22;6543;48.836;10.092;2023-12-20T15:06:58;4.90;99.90
12957;DHT22;6543;48.836;10.092;2023-12-20T15:09:27;4.80;99.90
12957;DHT22;6543;48.836;10.092;2023-12-20T15:11:57;4.80;99.90
12957;DHT22;6543;48.836;10.092;2023-12-20T15:14:25;4.70;99.90
12957;DHT22;6543;48.836;10.092;2023-12-20T15:16:53;5.10;99.90
12957;DHT22;6543;48.836;10.092;2023-12-20T15:19:20;4.60;99.90
12957;DHT22;6543;48.836;10.092;2023-12-20T15:21:47;5.30;99.90
12957;DHT22;6543;48.836;10.092;2023-12-20T15:24:16;4.60;99.90
12957;DHT22;6543;48.836;10.092;2023-12-20T15:26:46;4.60;99.90
12957;DHT22;6543;48.836;10.092;2023-12-20T15:29:13;4.80;99.90
12957;DHT22;6543;48.836;10.092;2023-12-20T15:31:43;4.60;99.90
12957;DHT22;6543;48.836;10.092;2023-12-20T15:34:11;5.80;99.90
12957;DHT22;6543;48.836;10.092;2023-12-20T15:36:38;4.60;99.90
12957;DHT22;6543;48.836;10.092;2023-12-20T15:39:06;5.60;99.90
12957;DHT22;6543;48.836;10.092;2023-12-20T15:41:34;4.70;99.90
12957;DHT22;6543;48.836;10.092;2023-12-20T15:44:02;4.60;99.90
12957;DHT22;6543;48.836;10.092;2023-12-20T15:46:29;4.70;99.90